createdAt,value
2024-05-09T00:00:45.060Z,67.49
2024-05-09T00:03:32.893Z,67.79
2024-05-09T00:06:00.842Z,67.97
2024-05-09T00:08:29.048Z,67.99
2024-05-09T00:10:56.998Z,67.95
2024-05-09T00:13:24.817Z,68.11
2024-05-09T00:15:52.602Z,68.38
2024-05-09T00:18:20.699Z,68.38
2024-05-09T00:20:48.523Z,68.17
2024-05-09T00:23:16.399Z,68.09
2024-05-09T00:25:44.790Z,68.30
2024-05-09T00:28:12.911Z,68.37
2024-05-09T00:30:41.281Z,68.54
2024-05-09T00:33:10.824Z,68.53
2024-05-09T00:35:39.916Z,68.51
2024-05-09T00:38:08.150Z,68.57
2024-05-09T00:40:40.459Z,68.30
2024-05-09T00:43:14.733Z,68.34
2024-05-09T00:45:44.109Z,68.43
2024-05-09T00:48:17.255Z,68.36
2024-05-09T00:50:48.045Z,68.46
2024-05-09T00:53:18.136Z,68.39
2024-05-09T00:55:47.447Z,68.51
2024-05-09T00:58:18.195Z,68.56
2024-05-09T01:00:46.677Z,68.32
2024-05-09T01:03:14.851Z,68.35
2024-05-09T01:05:44.060Z,68.37
2024-05-09T01:08:13.122Z,68.55
2024-05-09T01:10:44.853Z,68.90
2024-05-09T01:13:14.290Z,68.97
2024-05-09T01:15:42.990Z,68.96
2024-05-09T01:18:12.647Z,68.90
2024-05-09T01:20:44.326Z,68.74
2024-05-09T01:23:15.432Z,68.86
2024-05-09T01:25:46.142Z,69.07
2024-05-09T01:28:15.091Z,69.04
2024-05-09T01:30:43.412Z,69.03
2024-05-09T01:33:12.435Z,69.15
2024-05-09T01:35:42.322Z,69.06
2024-05-09T01:38:17.026Z,69.21
2024-05-09T01:40:44.990Z,69.00
2024-05-09T01:43:12.743Z,68.98
2024-05-09T01:45:41.472Z,69.10
2024-05-09T01:48:10.557Z,69.08
2024-05-09T01:50:41.933Z,69.13
2024-05-09T01:53:13.354Z,69.25
2024-05-09T01:55:42.131Z,69.53
2024-05-09T01:58:10.163Z,69.56
2024-05-09T02:00:42.200Z,69.34
2024-05-09T02:03:15.508Z,69.39
2024-05-09T02:05:47.696Z,69.58
2024-05-09T02:08:19.182Z,69.76
2024-05-09T02:10:49.029Z,69.86
2024-05-09T02:13:17.302Z,69.83
2024-05-09T02:15:45.216Z,70.00
2024-05-09T02:18:13.722Z,70.10
2024-05-09T02:20:42.796Z,70.05
2024-05-09T02:23:11.851Z,69.96
2024-05-09T02:25:41.094Z,70.20
2024-05-09T02:28:09.317Z,70.21
2024-05-09T02:30:40.684Z,70.46
2024-05-09T02:33:12.250Z,70.49
2024-05-09T02:35:43.636Z,70.65
2024-05-09T02:38:12.625Z,70.73
2024-05-09T02:40:40.935Z,70.43
2024-05-09T02:43:12.536Z,70.59
2024-05-09T02:45:41.052Z,70.64
2024-05-09T02:48:13.198Z,70.84
2024-05-09T02:50:43.987Z,71.04
2024-05-09T02:53:12.793Z,71.11
2024-05-09T02:55:41.795Z,71.08
2024-05-09T02:58:10.516Z,70.92
2024-05-09T03:00:41.685Z,71.02
2024-05-09T03:03:13.474Z,71.27
2024-05-09T03:05:44.825Z,71.38
2024-05-09T03:08:13.271Z,71.32
2024-05-09T03:10:41.215Z,71.42
2024-05-09T03:13:14.743Z,71.52
2024-05-09T03:15:44.935Z,71.52
2024-05-09T03:18:13.445Z,71.65
2024-05-09T03:20:43.845Z,71.90
2024-05-09T03:23:11.992Z,71.99
2024-05-09T03:25:39.818Z,71.99
2024-05-09T03:28:07.702Z,71.89
2024-05-09T03:30:40.917Z,71.83
2024-05-09T03:33:19.128Z,71.54
2024-05-09T03:35:49.188Z,71.66
2024-05-09T03:38:17.506Z,71.69
2024-05-09T03:40:50.609Z,71.86
2024-05-09T03:43:19.554Z,71.82
2024-05-09T03:45:49.158Z,72.05
2024-05-09T03:48:17.356Z,71.91
2024-05-09T03:50:45.699Z,71.74
2024-05-09T03:53:14.423Z,71.73
2024-05-09T03:55:42.461Z,71.70
2024-05-09T03:58:12.696Z,71.81
2024-05-09T04:00:41.932Z,71.78
2024-05-09T04:03:12.061Z,71.82
2024-05-09T04:05:42.704Z,71.82
2024-05-09T04:08:11.724Z,71.69
2024-05-09T04:10:40.793Z,71.75
2024-05-09T04:13:09.974Z,71.50
2024-05-09T04:15:37.807Z,71.31
2024-05-09T04:18:05.684Z,71.51
2024-05-09T04:20:38.711Z,71.54
2024-05-09T04:23:13.821Z,71.46
2024-05-09T04:25:44.978Z,71.26
2024-05-09T04:28:14.203Z,70.95
2024-05-09T04:30:42.856Z,70.62
2024-05-09T04:33:13.341Z,70.33
2024-05-09T04:35:43.705Z,70.09
2024-05-09T04:38:13.252Z,69.93
2024-05-09T04:40:41.406Z,69.77
2024-05-09T04:43:18.455Z,69.37
2024-05-09T04:45:46.750Z,68.67
2024-05-09T04:48:14.873Z,68.64
2024-05-09T04:50:43.011Z,68.58
2024-05-09T04:53:16.066Z,68.21
2024-05-09T04:55:44.153Z,67.90
2024-05-09T04:58:12.291Z,67.79
2024-05-09T05:00:41.152Z,67.49
2024-05-09T05:03:14.044Z,67.35
2024-05-09T05:05:45.450Z,66.99
2024-05-09T05:08:15.487Z,66.71
2024-05-09T05:10:44.145Z,66.38
2024-05-09T05:13:25.095Z,66.48
2024-05-09T05:15:56.807Z,66.12
2024-05-09T05:18:27.404Z,65.74
2024-05-09T05:20:56.477Z,65.69
2024-05-09T05:23:24.884Z,65.67
2024-05-09T05:25:53.568Z,65.51
2024-05-09T05:28:22.124Z,65.50
2024-05-09T05:30:50.393Z,65.24
2024-05-09T05:33:19.292Z,65.08
2024-05-09T05:35:47.832Z,65.09
2024-05-09T05:38:15.848Z,64.71
2024-05-09T05:40:43.661Z,64.67
2024-05-09T05:43:18.464Z,64.19
2024-05-09T05:45:46.808Z,64.16
2024-05-09T05:48:17.554Z,63.57
2024-05-09T05:50:46.025Z,63.13
2024-05-09T05:53:14.081Z,62.55
2024-05-09T05:55:42.180Z,62.05
2024-05-09T05:58:11.036Z,61.43
2024-05-09T06:00:41.028Z,60.77
2024-05-09T06:03:10.528Z,60.10
2024-05-09T06:05:48.199Z,59.32
2024-05-09T06:08:16.217Z,58.63
2024-05-09T06:10:44.088Z,58.05
2024-05-09T06:13:13.640Z,57.77
2024-05-09T06:15:42.597Z,57.98
2024-05-09T06:18:12.318Z,57.85
2024-05-09T06:20:41.921Z,57.20
2024-05-09T06:23:11.388Z,57.32
2024-05-09T06:25:39.368Z,57.58
2024-05-09T06:28:07.274Z,57.10
2024-05-09T06:30:41.925Z,57.40
2024-05-09T06:33:13.901Z,57.78
2024-05-09T06:35:44.727Z,58.17
2024-05-09T06:38:12.894Z,57.54
2024-05-09T06:40:43.073Z,56.81
2024-05-09T06:43:17.733Z,56.25
2024-05-09T06:45:48.700Z,55.99
2024-05-09T06:48:20.964Z,55.78
2024-05-09T06:50:49.664Z,55.61
2024-05-09T06:53:21.602Z,55.41
2024-05-09T06:55:49.986Z,54.55
2024-05-09T06:58:17.854Z,54.72
2024-05-09T07:00:45.641Z,54.28
2024-05-09T07:03:17.169Z,53.37
2024-05-09T07:05:48.179Z,53.45
2024-05-09T07:08:17.800Z,52.82
2024-05-09T07:10:45.875Z,51.04
2024-05-09T07:13:15.110Z,49.30
2024-05-09T07:15:43.772Z,47.51
2024-05-09T07:18:13.682Z,47.65
2024-05-09T07:20:42.192Z,48.11
2024-05-09T07:23:11.018Z,47.42
2024-05-09T07:25:40.367Z,47.95
2024-05-09T07:28:15.917Z,48.37
2024-05-09T07:30:44.574Z,47.39
2024-05-09T07:33:17.126Z,46.78
2024-05-09T07:35:45.319Z,46.69
2024-05-09T07:38:13.295Z,46.43
2024-05-09T07:40:41.662Z,46.57
2024-05-09T07:43:16.424Z,47.30
2024-05-09T07:45:52.092Z,48.49
2024-05-09T07:52:38.841Z,47.61
2024-05-09T07:53:47.883Z,44.99
2024-05-09T07:56:21.745Z,44.60
2024-05-09T07:58:52.454Z,44.10
2024-05-09T08:01:21.048Z,43.84
2024-05-09T08:03:49.361Z,43.30
2024-05-09T08:06:17.540Z,43.52
2024-05-09T08:08:48.335Z,43.04
2024-05-09T08:11:16.313Z,42.80
2024-05-09T08:13:44.146Z,42.82
2024-05-09T08:16:13.673Z,43.05
2024-05-09T08:18:41.692Z,42.42
2024-05-09T08:21:09.518Z,40.28
2024-05-09T08:23:37.274Z,40.20
2024-05-09T08:26:05.675Z,40.95
2024-05-09T08:28:33.458Z,39.75
2024-05-09T08:31:04.069Z,39.23
2024-05-09T08:33:34.172Z,39.25
2024-05-09T08:36:01.980Z,39.66
2024-05-09T08:38:29.968Z,39.94
2024-05-09T08:40:57.711Z,39.80
2024-05-09T08:43:26.586Z,39.58
2024-05-09T08:45:54.404Z,39.77
2024-05-09T08:48:24.127Z,39.73
2024-05-09T08:50:53.224Z,39.46
2024-05-09T08:53:21.243Z,39.02
2024-05-09T08:55:51.036Z,39.78
2024-05-09T08:58:19.561Z,40.08
2024-05-09T09:00:48.231Z,39.53
2024-05-09T09:03:18.976Z,39.30
2024-05-09T09:06:10.422Z,38.76
2024-05-09T09:08:39.159Z,38.04
2024-05-09T09:11:07.239Z,36.84
2024-05-09T09:13:35.008Z,36.71
2024-05-09T09:16:03.535Z,37.84
2024-05-09T09:18:32.780Z,37.46
2024-05-09T09:21:01.045Z,37.54
2024-05-09T09:23:29.823Z,37.80
2024-05-09T09:25:59.426Z,37.39
2024-05-09T09:28:27.301Z,36.46
2024-05-09T09:31:01.255Z,36.36
2024-05-09T09:33:32.956Z,36.13
2024-05-09T09:36:06.852Z,35.86
2024-05-09T09:38:40.330Z,35.27
2024-05-09T09:41:12.767Z,35.30
2024-05-09T09:43:42.579Z,34.74
2024-05-09T09:46:13.287Z,34.44
2024-05-09T09:48:42.662Z,33.86
2024-05-09T09:51:11.426Z,34.64
2024-05-09T09:53:40.096Z,34.35
2024-05-09T09:56:10.319Z,33.47
2024-05-09T09:58:40.095Z,32.51
2024-05-09T10:01:07.976Z,32.98
2024-05-09T10:03:36.165Z,32.65
2024-05-09T10:06:05.489Z,32.04
2024-05-09T10:08:35.246Z,32.85
2024-05-09T10:11:04.203Z,32.70
2024-05-09T10:13:35.403Z,32.44
2024-05-09T10:16:10.782Z,33.18
2024-05-09T10:18:40.759Z,33.31
2024-05-09T10:21:35.859Z,33.08
2024-05-09T10:24:04.016Z,33.37
2024-05-09T10:26:32.861Z,32.38
2024-05-09T10:29:03.318Z,33.41
2024-05-09T10:31:31.157Z,33.39
2024-05-09T10:34:00.390Z,33.25
2024-05-09T10:36:29.207Z,33.78
2024-05-09T10:38:57.191Z,33.87
2024-05-09T10:41:25.140Z,34.46
2024-05-09T10:43:52.986Z,33.72
2024-05-09T10:46:20.908Z,34.21
2024-05-09T10:48:49.442Z,34.08
2024-05-09T10:51:21.531Z,33.56
2024-05-09T10:53:49.378Z,33.36
2024-05-09T10:56:17.511Z,33.28
2024-05-09T10:58:45.391Z,33.00
2024-05-09T11:01:13.888Z,33.15
2024-05-09T11:03:42.423Z,33.44
2024-05-09T11:06:11.347Z,33.06
2024-05-09T11:08:39.392Z,32.89
2024-05-09T11:11:08.820Z,32.93
2024-05-09T11:13:39.502Z,33.98
2024-05-09T11:16:19.405Z,34.29
2024-05-09T11:18:56.157Z,32.55
2024-05-09T11:21:24.775Z,32.71
2024-05-09T11:23:52.988Z,31.96
2024-05-09T11:26:22.301Z,32.53
2024-05-09T11:28:50.757Z,32.15
2024-05-09T11:31:19.095Z,31.89
2024-05-09T11:33:47.344Z,33.05
2024-05-09T11:36:16.538Z,33.67
2024-05-09T11:38:44.367Z,33.76
2024-05-09T11:41:18.776Z,33.48
2024-05-09T11:43:46.800Z,33.57
2024-05-09T11:46:14.823Z,32.76
2024-05-09T11:48:43.195Z,32.31
2024-05-09T11:51:11.405Z,32.14
2024-05-09T11:53:39.451Z,32.64
2024-05-09T11:56:07.557Z,32.17
2024-05-09T11:58:36.948Z,32.42
2024-05-09T12:01:05.253Z,33.13
2024-05-09T12:03:35.085Z,34.02
2024-05-09T12:06:04.035Z,33.46
2024-05-09T12:08:31.909Z,33.16
2024-05-09T12:10:59.921Z,32.91
2024-05-09T12:13:28.171Z,33.26
2024-05-09T12:15:56.487Z,33.39
2024-05-09T12:18:24.633Z,33.59
2024-05-09T12:20:52.392Z,32.42
2024-05-09T12:23:20.078Z,33.33
2024-05-09T12:25:48.100Z,33.72
2024-05-09T12:28:16.044Z,32.97
2024-05-09T12:30:43.954Z,32.80
2024-05-09T12:33:13.275Z,32.51
2024-05-09T12:35:44.504Z,32.45
2024-05-09T12:38:15.384Z,31.94
2024-05-09T12:40:43.485Z,32.16
2024-05-09T12:43:11.949Z,32.59
2024-05-09T12:45:40.560Z,32.59
2024-05-09T12:48:11.915Z,31.94
2024-05-09T12:50:40.871Z,32.14
2024-05-09T12:53:08.916Z,31.55
2024-05-09T12:55:44.205Z,32.05
2024-05-09T12:58:21.929Z,32.21
2024-05-09T13:00:52.297Z,32.42
2024-05-09T13:03:21.428Z,32.41
2024-05-09T13:05:50.718Z,31.87
2024-05-09T13:08:19.510Z,31.20
2024-05-09T13:10:48.108Z,30.78
2024-05-09T13:13:16.017Z,31.13
2024-05-09T13:15:43.878Z,31.16
2024-05-09T13:18:11.834Z,31.60
2024-05-09T13:20:39.593Z,31.62
2024-05-09T13:23:08.343Z,32.17
2024-05-09T13:25:37.879Z,32.26
2024-05-09T13:28:07.901Z,32.51
2024-05-09T13:30:40.499Z,32.30
2024-05-09T13:33:12.059Z,32.06
2024-05-09T13:35:45.757Z,31.72
2024-05-09T13:38:21.098Z,31.88
2024-05-09T13:40:50.436Z,32.35
2024-05-09T13:43:19.155Z,33.07
2024-05-09T13:45:47.781Z,32.51
2024-05-09T13:48:15.778Z,32.60
2024-05-09T13:50:43.794Z,32.44
2024-05-09T13:53:11.822Z,32.50
2024-05-09T13:55:40.420Z,32.36
2024-05-09T13:58:09.435Z,32.69
2024-05-09T14:00:45.157Z,32.34
2024-05-09T14:03:19.103Z,32.62
2024-05-09T14:05:50.562Z,32.53
2024-05-09T14:08:19.946Z,32.31
2024-05-09T14:10:51.062Z,32.72
2024-05-09T14:13:19.650Z,31.75
2024-05-09T14:15:47.802Z,31.66
2024-05-09T14:18:15.728Z,31.85
2024-05-09T14:20:43.621Z,32.01
2024-05-09T14:23:11.507Z,31.96
2024-05-09T14:25:42.685Z,32.02
2024-05-09T14:28:13.196Z,32.22
2024-05-09T14:30:42.604Z,32.20
2024-05-09T14:33:11.396Z,32.33
2024-05-09T14:35:39.575Z,32.53
2024-05-09T14:38:08.809Z,32.42
2024-05-09T14:40:42.252Z,32.02
2024-05-09T14:43:13.394Z,32.40
2024-05-09T14:45:41.992Z,32.52
2024-05-09T14:48:10.751Z,32.15
2024-05-09T14:50:40.413Z,31.89
2024-05-09T14:53:10.840Z,32.14
2024-05-09T14:55:41.333Z,32.25
2024-05-09T14:58:11.425Z,32.28
2024-05-09T15:00:47.929Z,32.39
2024-05-09T15:03:19.815Z,32.31
2024-05-09T15:05:48.841Z,32.70
2024-05-09T15:08:18.212Z,32.91
2024-05-09T15:10:46.569Z,32.88
2024-05-09T15:13:16.710Z,32.87
2024-05-09T15:15:45.358Z,33.15
2024-05-09T15:18:14.887Z,33.71
2024-05-09T15:20:44.656Z,33.58
2024-05-09T15:23:12.604Z,33.87
2024-05-09T15:25:40.587Z,33.29
2024-05-09T15:28:08.792Z,33.37
2024-05-09T15:30:37.356Z,32.77
2024-05-09T15:33:07.121Z,33.17
2024-05-09T15:35:36.212Z,33.02
2024-05-09T15:38:04.751Z,33.06
2024-05-09T15:40:39.489Z,33.26
2024-05-09T15:43:10.996Z,32.97
2024-05-09T15:45:57.962Z,33.30
2024-05-09T15:48:26.588Z,33.48
2024-05-09T15:50:54.533Z,33.33
2024-05-09T15:53:22.355Z,33.42
2024-05-09T15:55:50.253Z,33.49
2024-05-09T15:58:18.646Z,33.20
2024-05-09T16:00:48.729Z,33.06
2024-05-09T16:03:19.516Z,33.23
2024-05-09T16:05:48.009Z,33.28
2024-05-09T16:08:16.397Z,33.13
2024-05-09T16:10:47.822Z,32.95
2024-05-09T16:13:16.907Z,33.20
2024-05-09T16:15:46.136Z,33.42
2024-05-09T16:18:14.225Z,33.41
2024-05-09T16:20:44.108Z,33.79
2024-05-09T16:23:13.470Z,33.81
2024-05-09T16:25:46.076Z,33.48
2024-05-09T16:28:14.280Z,32.93
2024-05-09T16:30:42.235Z,33.43
2024-05-09T16:33:13.496Z,33.39
2024-05-09T16:35:41.413Z,33.90
2024-05-09T16:38:09.376Z,34.09
2024-05-09T16:40:40.352Z,34.56
2024-05-09T16:43:10.739Z,35.32
2024-05-09T16:45:40.606Z,36.32
2024-05-09T16:48:09.229Z,37.31
2024-05-09T16:50:37.566Z,38.12
2024-05-09T16:53:06.669Z,38.62
2024-05-09T16:55:36.113Z,38.88
2024-05-09T16:58:06.493Z,38.96
2024-05-09T17:00:40.806Z,39.55
2024-05-09T17:03:14.856Z,39.77
2024-05-09T17:05:46.694Z,39.27
2024-05-09T17:08:18.049Z,39.05
2024-05-09T17:10:48.324Z,38.95
2024-05-09T17:13:16.596Z,38.89
2024-05-09T17:15:44.519Z,39.05
2024-05-09T17:18:12.615Z,39.54
2024-05-09T17:20:40.414Z,39.97
2024-05-09T17:23:13.588Z,40.13
2024-05-09T17:25:42.648Z,40.52
2024-05-09T17:28:11.470Z,41.53
2024-05-09T17:30:41.590Z,41.61
2024-05-09T17:33:11.401Z,41.64
2024-05-09T17:35:40.529Z,41.96
2024-05-09T17:38:08.674Z,42.44
2024-05-09T17:40:38.375Z,42.59
2024-05-09T17:43:09.431Z,43.15
2024-05-09T17:45:40.186Z,43.41
2024-05-09T17:48:10.252Z,43.49
2024-05-09T17:50:39.927Z,43.41
2024-05-09T17:53:08.568Z,43.47
2024-05-09T17:55:36.827Z,43.44
2024-05-09T17:58:05.874Z,43.77
2024-05-09T18:00:39.047Z,44.09
2024-05-09T18:03:13.900Z,44.47
2024-05-09T18:05:44.768Z,44.84
2024-05-09T18:08:13.711Z,44.60
2024-05-09T18:10:42.177Z,44.92
2024-05-09T18:13:11.982Z,44.95
2024-05-09T18:15:40.902Z,44.84
2024-05-09T18:18:10.348Z,44.66
2024-05-09T18:20:43.759Z,44.43
2024-05-09T18:23:16.412Z,44.39
2024-05-09T18:25:46.089Z,44.65
2024-05-09T18:28:14.835Z,45.00
2024-05-09T18:30:42.969Z,45.62
2024-05-09T18:33:11.641Z,46.18
2024-05-09T18:35:44.232Z,46.21
2024-05-09T18:38:12.238Z,45.90
2024-05-09T18:40:42.043Z,46.09
2024-05-09T18:43:11.686Z,46.32
2024-05-09T18:45:39.974Z,46.43
2024-05-09T18:48:09.578Z,46.55
2024-05-09T18:50:40.236Z,47.61
2024-05-09T18:53:11.727Z,47.82
2024-05-09T18:55:43.324Z,47.84
2024-05-09T18:58:11.648Z,47.96
2024-05-09T19:00:41.795Z,48.20
2024-05-09T19:03:13.995Z,48.45
2024-05-09T19:05:44.267Z,48.26
2024-05-09T19:08:14.801Z,48.09
2024-05-09T19:10:43.284Z,48.37
2024-05-09T19:13:13.377Z,48.44
2024-05-09T19:15:43.536Z,48.46
2024-05-09T19:18:13.206Z,48.90
2024-05-09T19:20:42.107Z,49.29
2024-05-09T19:23:11.471Z,49.51
2024-05-09T19:25:39.351Z,49.51
2024-05-09T19:28:07.209Z,49.71
2024-05-09T19:30:40.264Z,49.93
2024-05-09T19:33:13.042Z,50.28
2024-05-09T19:35:42.669Z,50.57
2024-05-09T19:38:10.882Z,50.91
2024-05-09T19:40:38.729Z,51.66
2024-05-09T19:43:06.997Z,52.24
2024-05-09T19:45:35.987Z,52.87
2024-05-09T19:48:05.472Z,53.02
2024-05-09T19:50:41.412Z,53.33
2024-05-09T19:53:13.317Z,53.73
2024-05-09T19:55:41.912Z,54.27
2024-05-09T19:58:10.923Z,54.38
2024-05-09T20:00:41.744Z,54.44
2024-05-09T20:03:13.084Z,54.09
2024-05-09T20:05:46.499Z,54.34
2024-05-09T20:08:15.014Z,54.86
2024-05-09T20:10:43.051Z,55.73
2024-05-09T20:13:11.032Z,56.37
2024-05-09T20:15:39.674Z,56.50
2024-05-09T20:18:08.017Z,56.82
2024-05-09T20:20:40.095Z,56.91
2024-05-09T20:23:12.302Z,56.84
2024-05-09T20:25:40.821Z,57.02
2024-05-09T20:28:08.925Z,56.77
2024-05-09T20:30:37.023Z,56.31
2024-05-09T20:33:07.455Z,56.35
2024-05-09T20:35:36.726Z,56.37
2024-05-09T20:38:05.194Z,56.21
2024-05-09T20:40:37.272Z,56.05
2024-05-09T20:43:10.846Z,56.07
2024-05-09T20:45:40.046Z,56.00
2024-05-09T20:48:09.305Z,55.80
2024-05-09T20:50:40.720Z,55.89
2024-05-09T20:53:11.973Z,56.20
2024-05-09T20:55:40.875Z,56.38
2024-05-09T20:58:09.914Z,56.33
2024-05-09T21:00:42.093Z,56.60
2024-05-09T21:03:13.811Z,56.90
2024-05-09T21:05:42.808Z,57.01
2024-05-09T21:08:10.700Z,57.09
2024-05-09T21:10:38.800Z,57.07
2024-05-09T21:13:07.419Z,57.73
2024-05-09T21:15:35.891Z,57.78
2024-05-09T21:18:04.579Z,58.03
2024-05-09T21:20:34.428Z,58.09
2024-05-09T21:23:03.019Z,58.34
2024-05-09T21:25:31.569Z,58.24
2024-05-09T21:27:59.768Z,58.25
2024-05-09T21:30:37.770Z,58.58
2024-05-09T21:33:11.849Z,58.74
2024-05-09T21:35:42.556Z,58.83
2024-05-09T21:38:10.490Z,59.03
2024-05-09T21:40:38.881Z,58.81
2024-05-09T21:43:07.635Z,58.37
2024-05-09T21:45:36.679Z,58.15
2024-05-09T21:48:06.138Z,57.81
2024-05-09T21:50:40.140Z,57.51
2024-05-09T21:53:11.789Z,57.46
2024-05-09T21:55:40.173Z,57.47
2024-05-09T21:58:08.343Z,57.34
2024-05-09T22:00:39.333Z,57.23
2024-05-09T22:03:09.002Z,57.17
2024-05-09T22:05:39.028Z,57.07
2024-05-09T22:08:07.827Z,57.12
2024-05-09T22:10:36.883Z,57.03
2024-05-09T22:13:06.361Z,57.00
2024-05-09T22:15:37.066Z,57.06
2024-05-09T22:18:07.462Z,57.13
2024-05-09T22:20:38.511Z,57.93
2024-05-09T22:23:08.572Z,57.77
2024-05-09T22:25:38.529Z,57.20
2024-05-09T22:28:07.289Z,57.31
2024-05-09T22:30:38.580Z,57.07
2024-05-09T22:33:09.676Z,56.98
2024-05-09T22:35:40.265Z,56.83
2024-05-09T22:38:08.716Z,57.55
2024-05-09T22:40:46.387Z,57.43
2024-05-09T22:43:22.556Z,57.85
2024-05-09T22:45:55.492Z,57.98
2024-05-09T22:48:24.804Z,58.27
2024-05-09T22:50:53.504Z,58.21
2024-05-09T22:53:24.120Z,57.92
2024-05-09T22:55:51.968Z,58.23
2024-05-09T22:58:20.739Z,58.13
2024-05-09T23:00:49.068Z,58.30
2024-05-09T23:03:18.498Z,58.19
2024-05-09T23:05:47.254Z,58.07
2024-05-09T23:08:15.036Z,58.43
2024-05-09T23:10:43.053Z,58.82
2024-05-09T23:13:11.040Z,59.03
2024-05-09T23:15:39.046Z,59.22
2024-05-09T23:18:07.983Z,59.11
2024-05-09T23:20:39.040Z,59.10
2024-05-09T23:23:10.597Z,59.23
2024-05-09T23:25:43.310Z,59.19
2024-05-09T23:28:11.799Z,58.93
2024-05-09T23:30:41.261Z,58.95
2024-05-09T23:33:12.236Z,59.36
2024-05-09T23:35:44.599Z,59.46
2024-05-09T23:38:13.528Z,59.16
2024-05-09T23:40:42.747Z,58.94
2024-05-09T23:43:12.318Z,58.92
2024-05-09T23:45:41.513Z,58.91
2024-05-09T23:48:10.013Z,58.59
2024-05-09T23:50:39.539Z,58.80
2024-05-09T23:53:09.446Z,58.96
2024-05-09T23:55:38.402Z,59.18
2024-05-09T23:58:07.431Z,59.01
